createdAt,value
2022-08-17T00:01:57.511Z,98090.59
2022-08-17T00:04:05.944Z,98090.47
2022-08-17T00:06:19.687Z,98093.16
2022-08-17T00:08:25.472Z,98097.78
2022-08-17T00:10:27.565Z,98097.69
2022-08-17T00:12:42.620Z,98099.19
2022-08-17T00:14:45.377Z,98099.41
2022-08-17T00:16:56.739Z,98096.50
2022-08-17T00:19:07.707Z,98096.38
2022-08-17T00:21:11.768Z,98091.53
2022-08-17T00:23:16.657Z,98091.75
2022-08-17T00:25:20.294Z,98082.13
2022-08-17T00:27:22.013Z,98093.97
2022-08-17T00:29:23.496Z,98094.66
2022-08-17T00:31:25.484Z,98094.50
2022-08-17T00:33:29.791Z,98098.81
2022-08-17T00:35:31.690Z,98092.31
2022-08-17T00:37:33.302Z,98091.81
2022-08-17T00:39:34.947Z,98092.50
2022-08-17T00:41:36.648Z,98097.59
2022-08-17T00:44:00.928Z,98092.59
2022-08-17T00:46:08.169Z,98088.53
2022-08-17T00:48:11.548Z,98087.63
2022-08-17T00:50:31.726Z,98089.44
2022-08-17T00:52:39.520Z,98083.41
2022-08-17T00:54:43.398Z,98086.09
2022-08-17T00:56:51.193Z,98075.66
2022-08-17T00:58:54.710Z,98073.19
2022-08-17T01:00:56.785Z,98075.88
2022-08-17T01:03:02.998Z,98080.16
2022-08-17T01:05:06.760Z,98084.75
2022-08-17T01:07:12.326Z,98079.91
2022-08-17T01:09:15.619Z,98078.94
2022-08-17T01:11:17.579Z,98089.59
2022-08-17T01:13:20.747Z,98079.97
2022-08-17T01:15:22.976Z,98082.63
2022-08-17T01:17:24.643Z,98087.72
2022-08-17T01:19:34.505Z,98091.16
2022-08-17T01:21:50.290Z,98089.88
2022-08-17T01:23:52.093Z,98089.78
2022-08-17T01:25:57.258Z,98078.97
2022-08-17T01:27:59.222Z,98086.34
2022-08-17T01:30:05.628Z,98081.47
2022-08-17T01:32:28.787Z,98084.94
2022-08-17T01:34:42.773Z,98082.03
2022-08-17T01:36:49.928Z,98085.50
2022-08-17T01:38:51.539Z,98081.44
2022-08-17T01:40:59.044Z,98080.97
2022-08-17T01:43:07.309Z,98080.81
2022-08-17T01:45:15.205Z,98082.00
2022-08-17T01:47:16.752Z,98089.03
2022-08-17T01:49:19.639Z,98093.31
2022-08-17T01:51:21.671Z,98084.47
2022-08-17T01:53:27.992Z,98087.94
2022-08-17T01:55:39.822Z,98083.06
2022-08-17T01:57:41.420Z,98090.94
2022-08-17T01:59:43.174Z,98091.25
2022-08-17T02:01:45.009Z,98087.66
2022-08-17T02:03:56.170Z,98084.75
2022-08-17T02:06:03.081Z,98089.03
2022-08-17T02:08:07.434Z,98084.97
2022-08-17T02:10:16.668Z,98088.06
2022-08-17T02:12:38.172Z,98080.06
2022-08-17T02:14:41.427Z,98079.94
2022-08-17T02:16:43.335Z,98079.47
2022-08-17T02:18:46.372Z,98067.88
2022-08-17T02:20:48.004Z,98076.56
2022-08-17T02:22:50.551Z,98071.31
2022-08-17T02:25:01.018Z,98074.44
2022-08-17T02:27:04.525Z,98082.31
2022-08-17T02:29:06.205Z,98079.03
2022-08-17T02:31:11.376Z,98065.50
2022-08-17T02:33:13.003Z,98066.66
2022-08-17T02:35:15.023Z,98067.00
2022-08-17T02:37:21.053Z,98063.75
2022-08-17T02:39:22.837Z,98064.06
2022-08-17T02:41:24.484Z,98065.22
2022-08-17T02:43:27.573Z,98066.34
2022-08-17T02:45:29.524Z,98064.69
2022-08-17T02:47:31.318Z,98066.19
2022-08-17T02:49:32.858Z,98058.22
2022-08-17T02:51:35.270Z,98058.56
2022-08-17T02:53:36.903Z,98050.56
2022-08-17T02:55:43.000Z,98050.06
2022-08-17T02:57:44.757Z,98053.53
2022-08-17T02:59:49.018Z,98054.69
2022-08-17T03:01:51.107Z,98049.81
2022-08-17T03:03:52.679Z,98047.34
2022-08-17T03:05:54.265Z,98043.28
2022-08-17T03:07:56.425Z,98051.13
2022-08-17T03:09:57.943Z,98054.56
2022-08-17T03:12:14.343Z,98052.50
2022-08-17T03:14:15.887Z,98053.16
2022-08-17T03:16:17.575Z,98053.16
2022-08-17T03:18:25.735Z,98049.91
2022-08-17T03:20:30.195Z,98053.81
2022-08-17T03:22:47.940Z,98049.41
2022-08-17T03:24:56.411Z,98045.34
2022-08-17T03:26:57.946Z,98040.63
2022-08-17T03:28:59.515Z,98040.13
2022-08-17T03:31:01.195Z,98045.69
2022-08-17T03:33:05.870Z,98042.09
2022-08-17T03:35:09.588Z,98047.16
2022-08-17T03:37:14.857Z,98045.53
2022-08-17T03:39:16.309Z,98052.25
2022-08-17T03:41:18.066Z,98047.00
2022-08-17T03:43:22.126Z,98049.31
2022-08-17T03:45:43.984Z,98048.00
2022-08-17T03:48:04.224Z,98049.50
2022-08-17T03:50:26.157Z,98054.41
2022-08-17T03:52:46.646Z,98063.41
2022-08-17T03:55:19.481Z,98062.91
2022-08-17T03:57:37.382Z,98059.53
2022-08-17T03:59:40.874Z,98063.44
2022-08-17T04:01:45.030Z,98061.78
2022-08-17T04:03:47.978Z,98066.88
2022-08-17T04:05:49.491Z,98059.72
2022-08-17T04:07:51.914Z,98069.50
2022-08-17T04:09:54.601Z,98063.13
2022-08-17T04:11:57.344Z,98072.59
2022-08-17T04:14:05.812Z,98078.44
2022-08-17T04:16:07.702Z,98077.63
2022-08-17T04:18:11.030Z,98081.53
2022-08-17T04:20:15.738Z,98077.16
2022-08-17T04:22:30.508Z,98075.50
2022-08-17T04:24:35.111Z,98082.22
2022-08-17T04:26:53.422Z,98086.59
2022-08-17T04:28:56.569Z,98088.88
2022-08-17T04:30:59.038Z,98089.72
2022-08-17T04:33:19.264Z,98097.19
2022-08-17T04:35:23.961Z,98096.06
2022-08-17T04:37:25.576Z,98096.38
2022-08-17T04:39:28.977Z,98098.84
2022-08-17T04:41:49.121Z,98096.84
2022-08-17T04:43:55.938Z,98104.38
2022-08-17T04:46:00.620Z,98099.97
2022-08-17T04:48:02.302Z,98109.94
2022-08-17T04:50:04.388Z,98103.56
2022-08-17T04:52:06.009Z,98091.31
2022-08-17T04:54:14.446Z,98092.94
2022-08-17T04:56:18.931Z,98096.53
2022-08-17T04:58:22.070Z,98092.63
2022-08-17T05:00:25.764Z,98103.69
2022-08-17T05:02:27.343Z,98104.50
2022-08-17T05:04:34.781Z,98102.56
2022-08-17T05:06:37.236Z,98105.84
2022-08-17T05:08:39.558Z,98101.13
2022-08-17T05:10:45.579Z,98103.56
2022-08-17T05:12:47.478Z,98112.38
2022-08-17T05:14:49.097Z,98111.22
2022-08-17T05:16:51.172Z,98116.09
2022-08-17T05:18:53.834Z,98111.03
2022-08-17T05:20:56.407Z,98115.94
2022-08-17T05:23:01.473Z,98113.63
2022-08-17T05:25:03.131Z,98114.94
2022-08-17T05:27:06.159Z,98115.91
2022-08-17T05:29:08.347Z,98123.69
2022-08-17T05:31:10.921Z,98113.91
2022-08-17T05:33:21.762Z,98114.06
2022-08-17T05:35:24.594Z,98107.84
2022-08-17T05:37:26.317Z,98113.06
2022-08-17T05:39:27.962Z,98115.97
2022-08-17T05:41:29.514Z,98110.94
2022-08-17T05:43:33.975Z,98109.44
2022-08-17T05:45:54.866Z,98112.34
2022-08-17T05:47:57.994Z,98120.00
2022-08-17T05:50:01.537Z,98112.97
2022-08-17T05:52:19.783Z,98113.13
2022-08-17T05:54:36.076Z,98111.66
2022-08-17T05:56:43.874Z,98101.50
2022-08-17T05:58:59.670Z,98111.59
2022-08-17T06:01:35.555Z,98107.50
2022-08-17T06:03:54.496Z,98114.50
2022-08-17T06:06:12.903Z,98110.84
2022-08-17T06:08:45.585Z,98111.63
2022-08-17T06:11:10.584Z,98104.03
2022-08-17T06:13:31.613Z,98098.09
2022-08-17T06:15:56.733Z,98105.00
2022-08-17T06:18:06.122Z,98099.19
2022-08-17T06:20:11.736Z,98103.66
2022-08-17T06:22:16.606Z,98104.53
2022-08-17T06:24:37.431Z,98099.81
2022-08-17T06:26:43.397Z,98103.56
2022-08-17T06:28:59.132Z,98109.50
2022-08-17T06:31:08.290Z,98103.19
2022-08-17T06:33:21.033Z,98108.78
2022-08-17T06:35:35.114Z,98110.41
2022-08-17T06:37:42.424Z,98103.47
2022-08-17T06:40:16.685Z,98098.47
2022-08-17T06:43:05.701Z,98096.75
2022-08-17T06:45:15.338Z,98099.72
2022-08-17T06:47:28.411Z,98101.75
2022-08-17T06:49:40.568Z,98096.63
2022-08-17T06:51:47.930Z,98095.88
2022-08-17T06:54:11.450Z,98102.31
2022-08-17T06:56:24.366Z,98101.53
2022-08-17T06:58:46.602Z,98109.59
2022-08-17T07:00:55.371Z,98112.41
2022-08-17T07:03:31.727Z,98113.63
2022-08-17T07:06:13.308Z,98118.84
2022-08-17T07:08:35.057Z,98112.88
2022-08-17T07:10:47.255Z,98104.06
2022-08-17T07:12:51.947Z,98101.16
2022-08-17T07:15:04.496Z,98113.03
2022-08-17T07:17:13.704Z,98122.91
2022-08-17T07:19:18.397Z,98121.97
2022-08-17T07:21:26.760Z,98118.59
2022-08-17T07:24:26.330Z,98128.03
2022-08-17T07:26:31.740Z,98122.41
2022-08-17T07:28:35.503Z,98127.41
2022-08-17T07:30:49.020Z,98126.00
2022-08-17T07:32:59.046Z,98133.41
2022-08-17T07:35:11.327Z,98128.84
2022-08-17T07:37:19.212Z,98133.84
2022-08-17T07:39:27.370Z,98140.91
2022-08-17T07:41:57.241Z,98132.31
2022-08-17T07:43:57.132Z,98136.97
2022-08-17T07:46:21.040Z,98127.94
2022-08-17T07:48:26.188Z,98129.00
2022-08-17T07:50:29.624Z,98134.84
2022-08-17T07:52:50.797Z,98131.41
2022-08-17T07:54:53.149Z,98132.00
2022-08-17T07:56:56.610Z,98124.50
2022-08-17T07:59:12.517Z,98130.31
2022-08-17T08:01:18.258Z,98116.84
2022-08-17T08:03:27.376Z,98125.47
2022-08-17T08:05:49.439Z,98122.81
2022-08-17T08:07:55.178Z,98123.41
2022-08-17T08:09:59.581Z,98130.84
2022-08-17T08:12:21.586Z,98124.94
2022-08-17T08:14:36.792Z,98127.16
2022-08-17T08:16:38.404Z,98124.91
2022-08-17T08:18:55.592Z,98132.66
2022-08-17T08:21:04.892Z,98125.16
2022-08-17T08:23:16.453Z,98131.28
2022-08-17T08:25:25.416Z,98130.66
2022-08-17T08:27:45.786Z,98123.91
2022-08-17T08:30:10.142Z,98131.63
2022-08-17T08:32:33.359Z,98129.72
2022-08-17T08:34:47.415Z,98122.16
2022-08-17T08:37:17.125Z,98115.34
2022-08-17T08:39:58.754Z,98116.66
2022-08-17T08:42:13.078Z,98115.03
2022-08-17T08:44:59.899Z,98113.03
2022-08-17T08:47:35.493Z,98119.91
2022-08-17T08:50:04.787Z,98110.22
2022-08-17T08:52:30.981Z,98109.00
2022-08-17T08:54:48.070Z,98111.00
2022-08-17T08:57:22.160Z,98121.03
2022-08-17T08:59:57.718Z,98108.06
2022-08-17T09:02:12.029Z,98104.75
2022-08-17T09:05:02.611Z,98106.69
2022-08-17T09:06:59.769Z,98096.06
2022-08-17T09:09:10.425Z,98092.75
2022-08-17T09:12:02.339Z,98098.34
2022-08-17T09:14:28.344Z,98089.69
2022-08-17T09:16:45.498Z,98101.72
2022-08-17T09:19:00.698Z,98106.44
2022-08-17T09:21:21.558Z,98106.69
2022-08-17T09:23:59.772Z,98098.91
2022-08-17T09:26:16.259Z,98090.69
2022-08-17T09:28:20.982Z,98103.47
2022-08-17T09:30:23.649Z,98087.50
2022-08-17T09:32:38.070Z,98085.69
2022-08-17T09:35:04.265Z,98083.84
2022-08-17T09:37:18.183Z,98088.06
2022-08-17T09:39:43.193Z,98086.25
2022-08-17T09:42:05.196Z,98086.38
2022-08-17T09:44:38.335Z,98090.19
2022-08-17T09:46:51.569Z,98098.09
2022-08-17T09:49:05.919Z,98091.41
2022-08-17T09:51:26.317Z,98091.13
2022-08-17T09:53:31.756Z,98081.97
2022-08-17T09:55:47.839Z,98071.69
2022-08-17T09:58:07.738Z,98074.31
2022-08-17T10:00:16.673Z,98077.28
2022-08-17T10:02:21.457Z,98085.19
2022-08-17T10:04:38.511Z,98086.22
2022-08-17T10:06:58.942Z,98086.38
2022-08-17T10:09:40.515Z,98080.44
2022-08-17T10:12:09.209Z,98081.09
2022-08-17T10:14:36.570Z,98078.16
2022-08-17T10:16:52.175Z,98082.16
2022-08-17T10:19:18.195Z,98077.63
2022-08-17T10:21:39.448Z,98079.97
2022-08-17T10:24:02.571Z,98078.22
2022-08-17T10:26:13.788Z,98077.25
2022-08-17T10:28:22.809Z,98071.31
2022-08-17T10:30:32.894Z,98067.06
2022-08-17T10:32:55.842Z,98061.09
2022-08-17T10:35:09.549Z,98066.47
2022-08-17T10:37:20.091Z,98062.09
2022-08-17T10:39:51.972Z,98068.31
2022-08-17T10:42:00.581Z,98064.84
2022-08-17T10:44:38.659Z,98070.69
2022-08-17T10:46:54.339Z,98071.31
2022-08-17T10:49:16.614Z,98070.06
2022-08-17T10:51:38.026Z,98081.47
2022-08-17T10:53:43.357Z,98072.47
2022-08-17T10:56:13.965Z,98068.47
2022-08-17T10:58:22.169Z,98073.81
2022-08-17T11:00:29.747Z,98079.16
2022-08-17T11:02:51.837Z,98074.38
2022-08-17T11:05:16.394Z,98079.78
2022-08-17T11:07:43.770Z,98089.31
2022-08-17T11:10:00.520Z,98078.88
2022-08-17T11:12:30.639Z,98079.88
2022-08-17T11:14:41.217Z,98073.56
2022-08-17T11:17:01.121Z,98066.81
2022-08-17T11:19:27.097Z,98064.94
2022-08-17T11:22:01.670Z,98071.00
2022-08-17T11:24:16.545Z,98074.91
2022-08-17T11:26:27.029Z,98083.28
2022-08-17T11:28:35.854Z,98066.34
2022-08-17T11:30:49.034Z,98076.75
2022-08-17T11:32:54.570Z,98077.75
2022-08-17T11:35:21.245Z,98072.31
2022-08-17T11:37:41.848Z,98078.16
2022-08-17T11:39:51.831Z,98077.06
2022-08-17T11:42:16.966Z,98073.91
2022-08-17T11:44:37.608Z,98079.34
2022-08-17T11:47:33.559Z,98081.09
2022-08-17T11:50:15.852Z,98080.88
2022-08-17T11:52:38.399Z,98093.00
2022-08-17T11:54:47.623Z,98087.53
2022-08-17T11:56:51.206Z,98077.63
2022-08-17T11:58:52.669Z,98081.97
2022-08-17T12:00:58.260Z,98080.97
2022-08-17T12:03:31.984Z,98076.31
2022-08-17T12:05:35.054Z,98081.31
2022-08-17T12:07:46.386Z,98070.97
2022-08-17T12:09:50.842Z,98068.69
2022-08-17T12:12:12.361Z,98066.88
2022-08-17T12:14:29.523Z,98054.88
2022-08-17T12:16:44.370Z,98065.28
2022-08-17T12:18:58.995Z,98060.94
2022-08-17T12:21:28.967Z,98056.13
2022-08-17T12:23:47.322Z,98058.75
2022-08-17T12:26:10.106Z,98048.94
2022-08-17T12:28:30.982Z,98050.97
2022-08-17T12:30:32.782Z,98050.31
2022-08-17T12:32:36.015Z,98045.19
2022-08-17T12:34:42.684Z,98053.19
2022-08-17T12:36:45.273Z,98052.63
2022-08-17T12:38:57.139Z,98058.50
2022-08-17T12:40:59.823Z,98066.88
2022-08-17T12:43:07.698Z,98063.06
2022-08-17T12:45:36.089Z,98056.13
2022-08-17T12:47:37.912Z,98053.50
2022-08-17T12:49:42.607Z,98052.91
2022-08-17T12:51:47.279Z,98064.16
2022-08-17T12:53:55.063Z,98059.56
2022-08-17T12:55:59.656Z,98051.22
2022-08-17T12:58:02.214Z,98051.09
2022-08-17T13:00:22.108Z,98061.56
2022-08-17T13:02:31.820Z,98057.72
2022-08-17T13:04:33.622Z,98063.63
2022-08-17T13:06:36.939Z,98060.97
2022-08-17T13:08:45.204Z,98052.25
2022-08-17T13:11:03.464Z,98055.78
2022-08-17T13:13:19.496Z,98057.97
2022-08-17T13:15:25.008Z,98060.09
2022-08-17T13:17:33.325Z,98057.44
2022-08-17T13:19:40.313Z,98053.56
2022-08-17T13:21:49.722Z,98060.22
2022-08-17T13:23:57.311Z,98059.19
2022-08-17T13:26:06.959Z,98067.09
2022-08-17T13:28:18.431Z,98053.78
2022-08-17T13:30:33.445Z,98062.97
2022-08-17T13:32:44.117Z,98051.75
2022-08-17T13:35:14.363Z,98058.06
2022-08-17T13:37:42.641Z,98068.81
2022-08-17T13:39:45.168Z,98053.56
2022-08-17T13:41:48.834Z,98051.69
2022-08-17T13:43:50.751Z,98055.91
2022-08-17T13:45:53.263Z,98055.28
2022-08-17T13:48:20.652Z,98062.00
2022-08-17T13:50:22.474Z,98062.53
2022-08-17T13:52:38.015Z,98059.84
2022-08-17T13:54:40.877Z,98068.03
2022-08-17T13:57:02.249Z,98062.06
2022-08-17T13:59:11.097Z,98058.16
2022-08-17T14:01:36.626Z,98055.88
2022-08-17T14:03:38.227Z,98046.28
2022-08-17T14:05:39.749Z,98041.47
2022-08-17T14:07:41.623Z,98033.47
2022-08-17T14:09:48.310Z,98030.25
2022-08-17T14:11:51.691Z,98027.03
2022-08-17T14:13:53.278Z,98029.88
2022-08-17T14:15:56.816Z,98029.00
2022-08-17T14:17:58.552Z,98020.47
2022-08-17T14:20:00.266Z,98020.06
2022-08-17T14:22:03.042Z,98018.38
2022-08-17T14:24:05.246Z,98025.66
2022-08-17T14:26:06.938Z,98020.31
2022-08-17T14:28:08.436Z,98021.13
2022-08-17T14:30:10.586Z,98016.72
2022-08-17T14:32:20.198Z,98024.41
2022-08-17T14:34:24.067Z,98028.06
2022-08-17T14:36:26.258Z,98013.06
2022-08-17T14:38:28.010Z,98015.91
2022-08-17T14:40:30.353Z,98024.41
2022-08-17T14:42:35.108Z,98035.78
2022-08-17T14:44:39.878Z,98032.13
2022-08-17T14:46:43.609Z,98036.22
2022-08-17T14:48:45.389Z,98037.88
2022-08-17T14:50:46.932Z,98040.00
2022-08-17T14:52:49.303Z,98041.31
2022-08-17T14:54:52.611Z,98040.13
2022-08-17T14:57:22.472Z,98032.91
2022-08-17T14:59:16.998Z,98030.56
2022-08-17T15:01:21.019Z,98044.47
2022-08-17T15:03:23.472Z,98047.81
2022-08-17T15:05:29.216Z,98052.38
2022-08-17T15:07:31.615Z,98046.78
2022-08-17T15:09:35.785Z,98044.00
2022-08-17T15:11:38.570Z,98030.31
2022-08-17T15:13:52.699Z,98037.19
2022-08-17T15:15:55.082Z,98029.19
2022-08-17T15:17:58.245Z,98027.97
2022-08-17T15:20:00.339Z,98027.97
2022-08-17T15:22:03.115Z,98023.50
2022-08-17T15:24:06.059Z,98027.97
2022-08-17T15:26:07.777Z,98030.91
2022-08-17T15:28:09.633Z,98029.72
2022-08-17T15:30:11.778Z,98029.78
2022-08-17T15:32:35.283Z,98028.25
2022-08-17T15:34:37.486Z,98027.06
2022-08-17T15:36:41.348Z,98024.72
2022-08-17T15:38:51.507Z,98025.59
2022-08-17T15:40:53.798Z,98031.31
2022-08-17T15:42:55.528Z,98035.44
2022-08-17T15:44:57.576Z,98031.44
2022-08-17T15:46:59.095Z,98033.16
2022-08-17T15:49:00.859Z,98032.81
2022-08-17T15:51:02.611Z,98035.69
2022-08-17T15:53:04.951Z,98038.59
2022-08-17T15:55:10.938Z,98035.00
2022-08-17T15:57:12.406Z,98037.09
2022-08-17T15:59:14.001Z,98030.25
2022-08-17T16:02:24.763Z,98029.09
2022-08-17T16:04:01.591Z,98018.22
2022-08-17T16:06:02.876Z,98023.94
2022-08-17T16:08:04.632Z,98024.41
2022-08-17T16:10:08.971Z,98025.69
2022-08-17T16:12:11.821Z,98032.59
2022-08-17T16:14:14.058Z,98035.50
2022-08-17T16:16:16.896Z,98039.97
2022-08-17T16:18:18.496Z,98033.09
2022-08-17T16:20:21.110Z,98033.16
2022-08-17T16:22:38.209Z,98025.13
2022-08-17T16:24:56.808Z,98029.19
2022-08-17T16:26:59.189Z,98018.72
2022-08-17T16:29:04.053Z,98025.66
2022-08-17T16:31:08.234Z,98022.06
2022-08-17T16:33:12.062Z,98016.38
2022-08-17T16:35:18.229Z,98018.03
2022-08-17T16:37:19.744Z,98022.91
2022-08-17T16:39:25.563Z,98024.53
2022-08-17T16:41:44.342Z,98018.88
2022-08-17T16:43:47.146Z,98022.56
2022-08-17T16:45:52.091Z,98015.31
2022-08-17T16:47:54.798Z,98012.09
2022-08-17T16:49:56.516Z,98003.63
2022-08-17T16:52:03.139Z,98002.81
2022-08-17T16:54:06.632Z,97999.63
2022-08-17T16:56:08.233Z,98006.94
2022-08-17T16:58:10.091Z,98000.47
2022-08-17T17:00:13.785Z,98014.25
2022-08-17T17:02:23.428Z,98005.38
2022-08-17T17:04:26.665Z,98005.44
2022-08-17T17:06:40.028Z,97997.78
2022-08-17T17:08:48.502Z,97996.63
2022-08-17T17:10:52.759Z,97998.25
2022-08-17T17:13:03.730Z,97995.84
2022-08-17T17:15:07.526Z,97997.47
2022-08-17T17:17:32.664Z,97997.94
2022-08-17T17:19:41.258Z,97999.19
2022-08-17T17:22:04.954Z,97996.81
2022-08-17T17:24:12.930Z,98001.69
2022-08-17T17:26:27.332Z,98003.78
2022-08-17T17:29:04.418Z,98003.03
2022-08-17T17:31:13.793Z,98000.22
2022-08-17T17:33:19.719Z,97997.41
2022-08-17T17:35:31.743Z,97988.97
2022-08-17T17:37:36.532Z,97989.41
2022-08-17T17:39:49.760Z,97985.81
2022-08-17T17:41:54.334Z,97979.81
2022-08-17T17:44:08.529Z,97978.22
2022-08-17T17:46:27.548Z,97977.09
2022-08-17T17:48:30.900Z,97971.09
2022-08-17T17:50:42.752Z,97970.72
2022-08-17T17:53:04.620Z,97971.59
2022-08-17T17:55:06.211Z,97962.34
2022-08-17T17:57:36.342Z,97966.84
2022-08-17T17:59:44.744Z,97964.53
2022-08-17T18:02:01.126Z,97973.84
2022-08-17T18:04:25.948Z,97978.75
2022-08-17T18:07:10.063Z,97967.88
2022-08-17T18:09:33.886Z,97968.69
2022-08-17T18:11:51.357Z,97962.69
2022-08-17T18:14:16.423Z,97967.16
2022-08-17T18:16:18.365Z,97974.88
2022-08-17T18:18:38.778Z,97964.00
2022-08-17T18:20:53.645Z,97961.63
2022-08-17T18:22:57.739Z,97966.47
2022-08-17T18:24:59.580Z,97972.97
2022-08-17T18:27:08.370Z,97960.06
2022-08-17T18:29:15.963Z,97954.47
2022-08-17T18:31:19.754Z,97961.72
2022-08-17T18:33:26.437Z,97963.78
2022-08-17T18:35:31.975Z,97956.13
2022-08-17T18:37:48.522Z,97963.84
2022-08-17T18:39:50.117Z,97958.59
2022-08-17T18:41:55.354Z,97960.63
2022-08-17T18:44:03.189Z,97965.09
2022-08-17T18:46:28.948Z,97967.16
2022-08-17T18:48:49.531Z,97966.34
2022-08-17T18:50:53.652Z,97966.38
2022-08-17T18:53:35.178Z,97970.44
2022-08-17T18:55:38.042Z,97970.84
2022-08-17T18:57:46.603Z,97978.88
2022-08-17T18:59:48.553Z,97985.34
2022-08-17T19:01:58.474Z,97990.19
2022-08-17T19:04:00.866Z,97994.63
2022-08-17T19:06:29.962Z,97995.03
2022-08-17T19:08:31.654Z,97999.06
2022-08-17T19:10:46.651Z,97989.41
2022-08-17T19:13:01.628Z,97999.09
2022-08-17T19:15:20.872Z,97992.59
2022-08-17T19:17:33.351Z,97987.75
2022-08-17T19:19:45.878Z,97988.97
2022-08-17T19:21:54.862Z,97987.78
2022-08-17T19:24:12.175Z,97988.56
2022-08-17T19:26:54.600Z,98000.63
2022-08-17T19:28:57.303Z,97996.19
2022-08-17T19:31:06.985Z,97992.56
2022-08-17T19:33:08.726Z,97996.56
2022-08-17T19:35:17.105Z,97995.72
2022-08-17T19:37:34.631Z,98001.31
2022-08-17T19:39:50.714Z,97989.63
2022-08-17T19:42:15.830Z,97990.41
2022-08-17T19:44:49.245Z,97997.19
2022-08-17T19:47:01.824Z,97990.34
2022-08-17T19:49:18.527Z,97989.53
2022-08-17T19:51:30.901Z,97985.84
2022-08-17T19:54:05.467Z,97993.44
2022-08-17T19:56:40.172Z,97989.78
2022-08-17T19:59:09.263Z,97981.69
2022-08-17T20:01:19.791Z,97981.25
2022-08-17T20:03:38.538Z,97987.25
2022-08-17T20:06:11.881Z,97993.59
2022-08-17T20:08:23.592Z,97976.28
2022-08-17T20:10:48.055Z,97977.41
2022-08-17T20:13:03.150Z,97976.16
2022-08-17T20:15:11.126Z,97980.09
2022-08-17T20:17:13.158Z,97974.47
2022-08-17T20:19:28.073Z,97978.81
2022-08-17T20:21:55.959Z,97986.38
2022-08-17T20:24:20.171Z,97980.72
2022-08-17T20:26:30.451Z,97984.28
2022-08-17T20:28:35.517Z,97987.41
2022-08-17T20:30:40.093Z,97982.94
2022-08-17T20:32:55.263Z,97985.69
2022-08-17T20:35:26.335Z,97969.97
2022-08-17T20:37:31.671Z,97989.19
2022-08-17T20:39:56.667Z,97995.50
2022-08-17T20:42:12.549Z,97998.25
2022-08-17T20:44:32.573Z,97996.97
2022-08-17T20:46:36.845Z,98001.75
2022-08-17T20:48:46.177Z,98007.69
2022-08-17T20:50:56.104Z,98005.19
2022-08-17T20:53:01.028Z,98001.16
2022-08-17T20:55:04.401Z,98007.09
2022-08-17T20:57:09.185Z,98015.47
2022-08-17T20:59:30.360Z,98019.41
2022-08-17T21:01:40.081Z,98021.75
2022-08-17T21:03:50.415Z,98024.53
2022-08-17T21:06:15.335Z,98025.63
2022-08-17T21:08:29.532Z,98025.63
2022-08-17T21:10:35.781Z,98025.56
2022-08-17T21:12:40.478Z,98024.72
2022-08-17T21:15:00.828Z,98029.06
2022-08-17T21:17:39.102Z,98023.81
2022-08-17T21:20:17.399Z,98018.53
2022-08-17T21:22:31.045Z,98028.03
2022-08-17T21:24:42.466Z,98019.56
2022-08-17T21:26:55.316Z,98021.53
2022-08-17T21:29:30.905Z,98029.06
2022-08-17T21:31:37.224Z,98024.59
2022-08-17T21:33:39.926Z,98020.13
2022-08-17T21:36:15.198Z,98014.03
2022-08-17T21:38:21.185Z,98031.22
2022-08-17T21:40:30.066Z,98024.75
2022-08-17T21:42:35.818Z,98023.50
2022-08-17T21:44:41.661Z,98033.03
2022-08-17T21:46:46.620Z,98035.00
2022-08-17T21:48:50.440Z,98038.88
2022-08-17T21:50:59.362Z,98036.41
2022-08-17T21:53:03.110Z,98035.13
2022-08-17T21:55:05.429Z,98039.00
2022-08-17T21:57:16.639Z,98041.75
2022-08-17T21:59:19.386Z,98044.84
2022-08-17T22:01:31.877Z,98047.97
2022-08-17T22:03:33.571Z,98037.50
2022-08-17T22:05:38.315Z,98043.84
2022-08-17T22:07:46.888Z,98036.56
2022-08-17T22:09:50.266Z,98031.72
2022-08-17T22:12:09.060Z,98028.06
2022-08-17T22:14:22.141Z,98030.78
2022-08-17T22:16:28.401Z,98031.16
2022-08-17T22:18:32.098Z,98040.28
2022-08-17T22:20:33.884Z,98049.06
2022-08-17T22:22:55.847Z,98043.81
2022-08-17T22:25:06.718Z,98048.56
2022-08-17T22:27:11.456Z,98050.09
2022-08-17T22:29:54.354Z,98046.41
2022-08-17T22:31:59.359Z,98052.78
2022-08-17T22:34:00.837Z,98051.94
2022-08-17T22:36:09.318Z,98047.91
2022-08-17T22:38:17.881Z,98053.06
2022-08-17T22:40:31.732Z,98048.19
2022-08-17T22:42:44.157Z,98053.78
2022-08-17T22:44:48.550Z,98050.97
2022-08-17T22:46:56.187Z,98052.53
2022-08-17T22:48:59.454Z,98047.75
2022-08-17T22:51:17.536Z,98057.69
2022-08-17T22:53:40.850Z,98052.88
2022-08-17T22:56:15.523Z,98051.63
2022-08-17T22:58:42.856Z,98051.63
2022-08-17T23:00:47.267Z,98053.63
2022-08-17T23:03:05.603Z,98044.78
2022-08-17T23:05:13.088Z,98050.38
2022-08-17T23:07:14.929Z,98046.78
2022-08-17T23:09:16.701Z,98048.78
2022-08-17T23:11:18.334Z,98039.56
2022-08-17T23:13:21.418Z,98033.97
2022-08-17T23:15:25.219Z,98049.13
2022-08-17T23:17:28.779Z,98042.75
2022-08-17T23:19:33.336Z,98051.13
2022-08-17T23:21:37.154Z,98053.94
2022-08-17T23:23:39.241Z,98043.09
2022-08-17T23:25:44.622Z,98050.66
2022-08-17T23:27:48.725Z,98057.03
2022-08-17T23:29:50.349Z,98057.03
2022-08-17T23:31:52.717Z,98062.63
2022-08-17T23:33:54.356Z,98063.78
2022-08-17T23:35:58.944Z,98058.91
2022-08-17T23:38:02.277Z,98051.72
2022-08-17T23:40:05.223Z,98054.53
2022-08-17T23:42:09.365Z,98047.69
2022-08-17T23:44:12.484Z,98049.66
2022-08-17T23:46:14.643Z,98050.81
2022-08-17T23:48:16.249Z,98044.78
2022-08-17T23:50:38.291Z,98050.75
2022-08-17T23:52:42.580Z,98047.16
2022-08-17T23:54:48.519Z,98044.72
2022-08-17T23:56:50.480Z,98042.28
2022-08-17T23:58:54.842Z,98036.69
